sensor_id;sensor_type;location;lat;lon;timestamp;P1;durP1;ratioP1;P2;durP2;ratioP2
70183;SDS011;57554;51.546;6.776;2022-09-01T00:01:25;3.75;;;0.90;;
70183;SDS011;57554;51.546;6.776;2022-09-01T00:03:52;3.72;;;0.90;;
70183;SDS011;57554;51.546;6.776;2022-09-01T00:06:19;4.75;;;1.23;;
70183;SDS011;57554;51.546;6.776;2022-09-01T00:08:53;3.30;;;0.98;;
70183;SDS011;57554;51.546;6.776;2022-09-01T00:11:22;4.10;;;1.00;;
70183;SDS011;57554;51.546;6.776;2022-09-01T00:13:49;3.42;;;1.05;;
70183;SDS011;57554;51.546;6.776;2022-09-01T00:16:15;3.20;;;1.00;;
70183;SDS011;57554;51.546;6.776;2022-09-01T00:18:42;4.28;;;0.90;;
70183;SDS011;57554;51.546;6.776;2022-09-01T00:21:17;4.38;;;0.90;;
70183;SDS011;57554;51.546;6.776;2022-09-01T00:23:44;3.90;;;0.90;;
70183;SDS011;57554;51.546;6.776;2022-09-01T00:26:10;5.15;;;1.13;;
70183;SDS011;57554;51.546;6.776;2022-09-01T00:28:36;8.13;;;1.17;;
70183;SDS011;57554;51.546;6.776;2022-09-01T00:31:03;5.28;;;0.85;;
70183;SDS011;57554;51.546;6.776;2022-09-01T00:33:31;4.18;;;0.95;;
70183;SDS011;57554;51.546;6.776;2022-09-01T00:35:58;4.45;;;1.00;;
70183;SDS011;57554;51.546;6.776;2022-09-01T00:38:24;7.47;;;1.25;;
70183;SDS011;57554;51.546;6.776;2022-09-01T00:40:50;6.35;;;1.02;;
70183;SDS011;57554;51.546;6.776;2022-09-01T00:43:17;3.75;;;1.08;;
70183;SDS011;57554;51.546;6.776;2022-09-01T00:45:46;3.50;;;0.90;;
70183;SDS011;57554;51.546;6.776;2022-09-01T00:48:13;3.85;;;0.98;;
70183;SDS011;57554;51.546;6.776;2022-09-01T00:50:39;4.25;;;0.90;;
70183;SDS011;57554;51.546;6.776;2022-09-01T00:53:06;6.50;;;1.23;;
70183;SDS011;57554;51.546;6.776;2022-09-01T00:55:34;4.85;;;1.20;;
70183;SDS011;57554;51.546;6.776;2022-09-01T00:58:02;3.40;;;0.88;;
70183;SDS011;57554;51.546;6.776;2022-09-01T01:00:30;3.95;;;1.00;;
70183;SDS011;57554;51.546;6.776;2022-09-01T01:02:57;3.80;;;0.80;;
70183;SDS011;57554;51.546;6.776;2022-09-01T01:05:33;6.82;;;1.23;;
70183;SDS011;57554;51.546;6.776;2022-09-01T01:08:03;3.92;;;1.10;;
70183;SDS011;57554;51.546;6.776;2022-09-01T01:10:32;4.28;;;1.00;;
70183;SDS011;57554;51.546;6.776;2022-09-01T01:13:11;5.53;;;1.10;;
70183;SDS011;57554;51.546;6.776;2022-09-01T01:15:39;5.10;;;1.10;;
70183;SDS011;57554;51.546;6.776;2022-09-01T01:18:09;3.65;;;0.90;;
70183;SDS011;57554;51.546;6.776;2022-09-01T01:20:35;4.30;;;1.23;;
70183;SDS011;57554;51.546;6.776;2022-09-01T01:26:01;3.20;;;0.95;;
70183;SDS011;57554;51.546;6.776;2022-09-01T01:28:38;5.32;;;1.30;;
70183;SDS011;57554;51.546;6.776;2022-09-01T01:31:07;4.88;;;1.10;;
70183;SDS011;57554;51.546;6.776;2022-09-01T01:33:42;3.58;;;1.02;;
70183;SDS011;57554;51.546;6.776;2022-09-01T01:36:14;3.72;;;0.90;;
70183;SDS011;57554;51.546;6.776;2022-09-01T01:38:51;3.90;;;1.00;;
70183;SDS011;57554;51.546;6.776;2022-09-01T01:41:18;4.78;;;1.13;;
70183;SDS011;57554;51.546;6.776;2022-09-01T01:43:44;4.00;;;1.10;;
70183;SDS011;57554;51.546;6.776;2022-09-01T01:46:12;4.57;;;1.00;;
70183;SDS011;57554;51.546;6.776;2022-09-01T01:48:39;4.95;;;1.02;;
70183;SDS011;57554;51.546;6.776;2022-09-01T01:51:06;4.38;;;0.90;;
70183;SDS011;57554;51.546;6.776;2022-09-01T01:53:33;3.10;;;1.00;;
70183;SDS011;57554;51.546;6.776;2022-09-01T01:55:59;4.13;;;0.93;;
70183;SDS011;57554;51.546;6.776;2022-09-01T01:58:25;5.05;;;1.00;;
70183;SDS011;57554;51.546;6.776;2022-09-01T02:00:53;3.28;;;0.98;;
70183;SDS011;57554;51.546;6.776;2022-09-01T02:03:20;4.05;;;1.10;;
70183;SDS011;57554;51.546;6.776;2022-09-01T02:05:49;4.05;;;1.17;;
70183;SDS011;57554;51.546;6.776;2022-09-01T02:08:16;6.22;;;1.20;;
70183;SDS011;57554;51.546;6.776;2022-09-01T02:10:46;3.17;;;1.00;;
70183;SDS011;57554;51.546;6.776;2022-09-01T02:13:19;4.80;;;1.02;;
70183;SDS011;57554;51.546;6.776;2022-09-01T02:15:54;7.50;;;1.58;;
70183;SDS011;57554;51.546;6.776;2022-09-01T02:18:23;6.22;;;1.10;;
70183;SDS011;57554;51.546;6.776;2022-09-01T02:20:52;3.90;;;1.13;;
70183;SDS011;57554;51.546;6.776;2022-09-01T02:23:19;4.10;;;1.05;;
70183;SDS011;57554;51.546;6.776;2022-09-01T02:25:50;4.82;;;1.20;;
70183;SDS011;57554;51.546;6.776;2022-09-01T02:28:18;6.82;;;1.30;;
70183;SDS011;57554;51.546;6.776;2022-09-01T02:30:45;3.40;;;1.00;;
70183;SDS011;57554;51.546;6.776;2022-09-01T02:33:23;4.32;;;1.02;;
70183;SDS011;57554;51.546;6.776;2022-09-01T02:35:51;4.78;;;1.20;;
70183;SDS011;57554;51.546;6.776;2022-09-01T02:38:22;4.38;;;1.00;;
70183;SDS011;57554;51.546;6.776;2022-09-01T02:40:54;3.30;;;1.10;;
70183;SDS011;57554;51.546;6.776;2022-09-01T02:43:22;5.15;;;1.10;;
70183;SDS011;57554;51.546;6.776;2022-09-01T02:45:52;4.82;;;1.08;;
70183;SDS011;57554;51.546;6.776;2022-09-01T02:48:24;3.88;;;1.23;;
70183;SDS011;57554;51.546;6.776;2022-09-01T02:51:00;3.72;;;1.10;;
70183;SDS011;57554;51.546;6.776;2022-09-01T02:53:28;4.88;;;1.10;;
70183;SDS011;57554;51.546;6.776;2022-09-01T02:55:55;7.30;;;1.00;;
70183;SDS011;57554;51.546;6.776;2022-09-01T02:58:28;7.45;;;1.23;;
70183;SDS011;57554;51.546;6.776;2022-09-01T03:00:57;5.05;;;1.13;;
70183;SDS011;57554;51.546;6.776;2022-09-01T03:03:23;4.72;;;1.35;;
70183;SDS011;57554;51.546;6.776;2022-09-01T03:05:50;7.25;;;1.25;;
70183;SDS011;57554;51.546;6.776;2022-09-01T03:08:20;4.32;;;1.40;;
70183;SDS011;57554;51.546;6.776;2022-09-01T03:10:47;4.15;;;1.10;;
70183;SDS011;57554;51.546;6.776;2022-09-01T03:13:14;4.25;;;1.10;;
70183;SDS011;57554;51.546;6.776;2022-09-01T03:15:45;3.55;;;1.08;;
70183;SDS011;57554;51.546;6.776;2022-09-01T03:18:11;6.57;;;1.30;;
70183;SDS011;57554;51.546;6.776;2022-09-01T03:20:39;6.90;;;1.30;;
70183;SDS011;57554;51.546;6.776;2022-09-01T03:23:11;4.93;;;1.25;;
70183;SDS011;57554;51.546;6.776;2022-09-01T03:25:40;4.15;;;1.30;;
70183;SDS011;57554;51.546;6.776;2022-09-01T03:28:06;3.80;;;1.08;;
70183;SDS011;57554;51.546;6.776;2022-09-01T03:30:34;3.45;;;1.02;;
70183;SDS011;57554;51.546;6.776;2022-09-01T03:33:03;4.15;;;1.30;;
70183;SDS011;57554;51.546;6.776;2022-09-01T03:35:29;5.22;;;1.30;;
70183;SDS011;57554;51.546;6.776;2022-09-01T03:37:56;4.32;;;1.08;;
70183;SDS011;57554;51.546;6.776;2022-09-01T03:40:24;4.68;;;1.25;;
70183;SDS011;57554;51.546;6.776;2022-09-01T03:42:56;5.07;;;1.17;;
70183;SDS011;57554;51.546;6.776;2022-09-01T03:45:27;7.07;;;1.42;;
70183;SDS011;57554;51.546;6.776;2022-09-01T03:47:53;5.13;;;1.10;;
70183;SDS011;57554;51.546;6.776;2022-09-01T03:50:21;4.53;;;1.13;;
70183;SDS011;57554;51.546;6.776;2022-09-01T03:52:53;4.50;;;1.50;;
70183;SDS011;57554;51.546;6.776;2022-09-01T03:55:28;4.15;;;1.10;;
70183;SDS011;57554;51.546;6.776;2022-09-01T03:57:58;3.20;;;1.08;;
70183;SDS011;57554;51.546;6.776;2022-09-01T04:00:27;5.25;;;1.40;;
70183;SDS011;57554;51.546;6.776;2022-09-01T04:02:54;4.93;;;1.40;;
70183;SDS011;57554;51.546;6.776;2022-09-01T04:05:23;6.20;;;1.55;;
70183;SDS011;57554;51.546;6.776;2022-09-01T04:07:53;5.55;;;1.40;;
70183;SDS011;57554;51.546;6.776;2022-09-01T04:10:26;6.97;;;1.67;;
70183;SDS011;57554;51.546;6.776;2022-09-01T04:12:51;5.10;;;1.40;;
70183;SDS011;57554;51.546;6.776;2022-09-01T04:15:23;3.97;;;1.15;;
70183;SDS011;57554;51.546;6.776;2022-09-01T04:17:49;5.07;;;1.42;;
70183;SDS011;57554;51.546;6.776;2022-09-01T04:20:37;5.75;;;1.63;;
70183;SDS011;57554;51.546;6.776;2022-09-01T04:23:14;6.38;;;1.42;;
70183;SDS011;57554;51.546;6.776;2022-09-01T04:25:44;6.47;;;1.60;;
70183;SDS011;57554;51.546;6.776;2022-09-01T04:28:13;5.63;;;1.50;;
70183;SDS011;57554;51.546;6.776;2022-09-01T04:30:47;5.20;;;1.40;;
70183;SDS011;57554;51.546;6.776;2022-09-01T04:33:14;5.30;;;1.30;;
70183;SDS011;57554;51.546;6.776;2022-09-01T04:35:41;5.72;;;1.35;;
70183;SDS011;57554;51.546;6.776;2022-09-01T04:38:07;5.65;;;1.50;;
70183;SDS011;57554;51.546;6.776;2022-09-01T04:40:38;5.25;;;1.50;;
70183;SDS011;57554;51.546;6.776;2022-09-01T04:43:05;8.77;;;1.70;;
70183;SDS011;57554;51.546;6.776;2022-09-01T04:45:33;10.13;;;2.00;;
70183;SDS011;57554;51.546;6.776;2022-09-01T04:48:00;5.85;;;1.40;;
70183;SDS011;57554;51.546;6.776;2022-09-01T04:50:27;5.18;;;1.27;;
70183;SDS011;57554;51.546;6.776;2022-09-01T04:52:56;5.13;;;1.48;;
70183;SDS011;57554;51.546;6.776;2022-09-01T04:55:25;4.63;;;1.50;;
70183;SDS011;57554;51.546;6.776;2022-09-01T04:57:54;4.90;;;1.40;;
70183;SDS011;57554;51.546;6.776;2022-09-01T05:00:22;4.85;;;1.35;;
70183;SDS011;57554;51.546;6.776;2022-09-01T05:02:50;5.18;;;1.27;;
70183;SDS011;57554;51.546;6.776;2022-09-01T05:05:18;5.78;;;1.58;;
70183;SDS011;57554;51.546;6.776;2022-09-01T05:07:45;4.97;;;1.40;;
70183;SDS011;57554;51.546;6.776;2022-09-01T05:10:14;6.38;;;1.60;;
70183;SDS011;57554;51.546;6.776;2022-09-01T05:12:42;8.40;;;1.50;;
70183;SDS011;57554;51.546;6.776;2022-09-01T05:15:09;5.38;;;1.20;;
70183;SDS011;57554;51.546;6.776;2022-09-01T05:17:36;5.07;;;1.58;;
70183;SDS011;57554;51.546;6.776;2022-09-01T05:20:04;5.53;;;1.60;;
70183;SDS011;57554;51.546;6.776;2022-09-01T05:22:30;7.13;;;1.55;;
70183;SDS011;57554;51.546;6.776;2022-09-01T05:24:59;7.53;;;1.80;;
70183;SDS011;57554;51.546;6.776;2022-09-01T05:27:37;6.22;;;1.50;;
70183;SDS011;57554;51.546;6.776;2022-09-01T05:30:05;11.43;;;1.73;;
70183;SDS011;57554;51.546;6.776;2022-09-01T05:32:33;7.55;;;1.63;;
70183;SDS011;57554;51.546;6.776;2022-09-01T05:35:01;9.80;;;1.90;;
70183;SDS011;57554;51.546;6.776;2022-09-01T05:37:32;9.25;;;1.73;;
70183;SDS011;57554;51.546;6.776;2022-09-01T05:40:00;5.00;;;1.55;;
70183;SDS011;57554;51.546;6.776;2022-09-01T05:42:26;5.53;;;1.50;;
70183;SDS011;57554;51.546;6.776;2022-09-01T05:44:52;6.45;;;1.80;;
70183;SDS011;57554;51.546;6.776;2022-09-01T05:47:18;5.03;;;1.33;;
70183;SDS011;57554;51.546;6.776;2022-09-01T05:49:45;5.93;;;1.27;;
70183;SDS011;57554;51.546;6.776;2022-09-01T05:52:11;6.25;;;1.63;;
70183;SDS011;57554;51.546;6.776;2022-09-01T05:54:36;6.47;;;1.70;;
70183;SDS011;57554;51.546;6.776;2022-09-01T05:57:02;4.47;;;1.23;;
70183;SDS011;57554;51.546;6.776;2022-09-01T05:59:28;7.35;;;1.40;;
70183;SDS011;57554;51.546;6.776;2022-09-01T06:01:57;7.43;;;1.60;;
70183;SDS011;57554;51.546;6.776;2022-09-01T06:04:24;8.95;;;1.55;;
70183;SDS011;57554;51.546;6.776;2022-09-01T06:06:51;7.72;;;1.60;;
70183;SDS011;57554;51.546;6.776;2022-09-01T06:09:18;4.22;;;1.63;;
70183;SDS011;57554;51.546;6.776;2022-09-01T06:11:47;6.82;;;1.48;;
70183;SDS011;57554;51.546;6.776;2022-09-01T06:14:14;4.82;;;1.48;;
70183;SDS011;57554;51.546;6.776;2022-09-01T06:16:40;6.85;;;1.58;;
70183;SDS011;57554;51.546;6.776;2022-09-01T06:19:07;4.40;;;1.23;;
70183;SDS011;57554;51.546;6.776;2022-09-01T06:21:34;7.55;;;1.80;;
70183;SDS011;57554;51.546;6.776;2022-09-01T06:24:02;4.80;;;1.63;;
70183;SDS011;57554;51.546;6.776;2022-09-01T06:26:30;10.32;;;2.60;;
70183;SDS011;57554;51.546;6.776;2022-09-01T06:28:58;10.50;;;3.20;;
70183;SDS011;57554;51.546;6.776;2022-09-01T06:31:28;7.72;;;2.70;;
70183;SDS011;57554;51.546;6.776;2022-09-01T06:33:59;13.65;;;3.20;;
70183;SDS011;57554;51.546;6.776;2022-09-01T06:36:26;6.78;;;2.60;;
70183;SDS011;57554;51.546;6.776;2022-09-01T06:38:53;7.97;;;2.67;;
70183;SDS011;57554;51.546;6.776;2022-09-01T06:41:19;14.45;;;3.35;;
70183;SDS011;57554;51.546;6.776;2022-09-01T06:43:50;9.20;;;3.05;;
70183;SDS011;57554;51.546;6.776;2022-09-01T06:46:17;5.53;;;2.20;;
70183;SDS011;57554;51.546;6.776;2022-09-01T06:48:44;7.13;;;2.53;;
70183;SDS011;57554;51.546;6.776;2022-09-01T06:51:13;13.90;;;2.17;;
70183;SDS011;57554;51.546;6.776;2022-09-01T06:53:41;7.40;;;1.90;;
70183;SDS011;57554;51.546;6.776;2022-09-01T06:56:08;4.97;;;1.90;;
70183;SDS011;57554;51.546;6.776;2022-09-01T06:58:40;6.20;;;1.80;;
70183;SDS011;57554;51.546;6.776;2022-09-01T07:01:12;5.78;;;1.70;;
70183;SDS011;57554;51.546;6.776;2022-09-01T07:03:42;5.82;;;1.70;;
70183;SDS011;57554;51.546;6.776;2022-09-01T07:06:08;5.80;;;1.40;;
70183;SDS011;57554;51.546;6.776;2022-09-01T07:08:35;8.48;;;1.50;;
70183;SDS011;57554;51.546;6.776;2022-09-01T07:11:04;7.82;;;1.40;;
70183;SDS011;57554;51.546;6.776;2022-09-01T07:13:32;3.40;;;1.15;;
70183;SDS011;57554;51.546;6.776;2022-09-01T07:15:59;9.60;;;2.58;;
70183;SDS011;57554;51.546;6.776;2022-09-01T07:18:28;6.22;;;1.52;;
70183;SDS011;57554;51.546;6.776;2022-09-01T07:20:55;6.03;;;1.25;;
70183;SDS011;57554;51.546;6.776;2022-09-01T07:23:21;6.63;;;1.20;;
70183;SDS011;57554;51.546;6.776;2022-09-01T07:25:48;5.35;;;1.20;;
70183;SDS011;57554;51.546;6.776;2022-09-01T07:28:19;5.32;;;1.10;;
70183;SDS011;57554;51.546;6.776;2022-09-01T07:30:48;6.50;;;1.30;;
70183;SDS011;57554;51.546;6.776;2022-09-01T07:33:17;6.90;;;1.45;;
70183;SDS011;57554;51.546;6.776;2022-09-01T07:35:48;5.68;;;1.23;;
70183;SDS011;57554;51.546;6.776;2022-09-01T07:38:18;4.43;;;1.25;;
70183;SDS011;57554;51.546;6.776;2022-09-01T07:40:44;4.97;;;1.13;;
70183;SDS011;57554;51.546;6.776;2022-09-01T07:43:17;5.25;;;0.98;;
70183;SDS011;57554;51.546;6.776;2022-09-01T07:45:47;4.47;;;1.30;;
70183;SDS011;57554;51.546;6.776;2022-09-01T07:48:15;7.82;;;1.45;;
70183;SDS011;57554;51.546;6.776;2022-09-01T07:50:45;5.15;;;1.17;;
70183;SDS011;57554;51.546;6.776;2022-09-01T07:53:34;7.85;;;1.10;;
70183;SDS011;57554;51.546;6.776;2022-09-01T07:56:05;3.70;;;0.98;;
70183;SDS011;57554;51.546;6.776;2022-09-01T07:58:33;5.20;;;1.17;;
70183;SDS011;57554;51.546;6.776;2022-09-01T08:01:00;4.32;;;1.15;;
70183;SDS011;57554;51.546;6.776;2022-09-01T08:03:27;4.03;;;1.38;;
70183;SDS011;57554;51.546;6.776;2022-09-01T08:05:53;4.53;;;1.17;;
70183;SDS011;57554;51.546;6.776;2022-09-01T08:08:25;6.00;;;1.23;;
70183;SDS011;57554;51.546;6.776;2022-09-01T08:10:50;6.75;;;1.23;;
70183;SDS011;57554;51.546;6.776;2022-09-01T08:13:16;4.15;;;1.10;;
70183;SDS011;57554;51.546;6.776;2022-09-01T08:15:42;6.93;;;1.10;;
70183;SDS011;57554;51.546;6.776;2022-09-01T08:18:08;4.07;;;0.93;;
70183;SDS011;57554;51.546;6.776;2022-09-01T08:20:36;5.55;;;1.20;;
70183;SDS011;57554;51.546;6.776;2022-09-01T08:23:04;4.10;;;1.05;;
70183;SDS011;57554;51.546;6.776;2022-09-01T08:25:31;4.97;;;1.23;;
70183;SDS011;57554;51.546;6.776;2022-09-01T08:27:58;5.40;;;1.05;;
70183;SDS011;57554;51.546;6.776;2022-09-01T08:30:25;4.10;;;1.17;;
70183;SDS011;57554;51.546;6.776;2022-09-01T08:32:51;6.38;;;1.13;;
70183;SDS011;57554;51.546;6.776;2022-09-01T08:35:17;6.32;;;0.90;;
70183;SDS011;57554;51.546;6.776;2022-09-01T08:37:43;6.03;;;1.15;;
70183;SDS011;57554;51.546;6.776;2022-09-01T08:40:11;3.00;;;0.85;;
70183;SDS011;57554;51.546;6.776;2022-09-01T08:47:51;4.60;;;1.00;;
70183;SDS011;57554;51.546;6.776;2022-09-01T08:50:18;4.20;;;0.80;;
70183;SDS011;57554;51.546;6.776;2022-09-01T08:52:46;5.45;;;0.93;;
70183;SDS011;57554;51.546;6.776;2022-09-01T08:55:30;4.03;;;1.00;;
70183;SDS011;57554;51.546;6.776;2022-09-01T08:58:06;3.65;;;0.80;;
70183;SDS011;57554;51.546;6.776;2022-09-01T09:00:38;4.00;;;0.80;;
70183;SDS011;57554;51.546;6.776;2022-09-01T09:11:36;3.97;;;1.08;;
70183;SDS011;57554;51.546;6.776;2022-09-01T09:17:09;6.10;;;0.90;;
70183;SDS011;57554;51.546;6.776;2022-09-01T09:19:38;3.47;;;0.90;;
70183;SDS011;57554;51.546;6.776;2022-09-01T09:22:07;5.63;;;1.02;;
70183;SDS011;57554;51.546;6.776;2022-09-01T09:27:23;6.45;;;1.10;;
70183;SDS011;57554;51.546;6.776;2022-09-01T09:29:52;5.55;;;0.80;;
70183;SDS011;57554;51.546;6.776;2022-09-01T09:32:19;4.35;;;0.70;;
70183;SDS011;57554;51.546;6.776;2022-09-01T09:34:46;2.58;;;0.68;;
70183;SDS011;57554;51.546;6.776;2022-09-01T09:39:44;6.70;;;1.05;;
70183;SDS011;57554;51.546;6.776;2022-09-01T09:42:34;9.23;;;0.90;;
70183;SDS011;57554;51.546;6.776;2022-09-01T09:45:04;4.80;;;1.10;;
70183;SDS011;57554;51.546;6.776;2022-09-01T09:47:41;4.45;;;0.70;;
70183;SDS011;57554;51.546;6.776;2022-09-01T09:53:59;2.78;;;0.90;;
70183;SDS011;57554;51.546;6.776;2022-09-01T09:56:01;3.83;;;0.70;;
70183;SDS011;57554;51.546;6.776;2022-09-01T10:01:14;5.18;;;0.73;;
70183;SDS011;57554;51.546;6.776;2022-09-01T10:03:55;4.45;;;0.70;;
70183;SDS011;57554;51.546;6.776;2022-09-01T10:06:30;5.18;;;1.00;;
70183;SDS011;57554;51.546;6.776;2022-09-01T10:09:14;4.45;;;0.90;;
70183;SDS011;57554;51.546;6.776;2022-09-01T10:12:01;4.78;;;0.80;;
70183;SDS011;57554;51.546;6.776;2022-09-01T10:14:29;4.68;;;1.10;;
70183;SDS011;57554;51.546;6.776;2022-09-01T10:17:07;4.05;;;0.80;;
70183;SDS011;57554;51.546;6.776;2022-09-01T10:19:39;3.45;;;0.90;;
70183;SDS011;57554;51.546;6.776;2022-09-01T10:22:13;6.25;;;1.10;;
70183;SDS011;57554;51.546;6.776;2022-09-01T10:24:39;6.30;;;0.98;;
70183;SDS011;57554;51.546;6.776;2022-09-01T10:27:23;5.53;;;1.13;;
70183;SDS011;57554;51.546;6.776;2022-09-01T10:30:13;5.43;;;1.05;;
70183;SDS011;57554;51.546;6.776;2022-09-01T10:32:42;5.18;;;0.93;;
70183;SDS011;57554;51.546;6.776;2022-09-01T10:35:18;4.90;;;0.90;;
70183;SDS011;57554;51.546;6.776;2022-09-01T10:37:58;3.60;;;0.90;;
70183;SDS011;57554;51.546;6.776;2022-09-01T10:42:54;3.13;;;0.77;;
70183;SDS011;57554;51.546;6.776;2022-09-01T10:53:43;3.17;;;0.90;;
70183;SDS011;57554;51.546;6.776;2022-09-01T11:04:13;4.90;;;0.98;;
70183;SDS011;57554;51.546;6.776;2022-09-01T11:09:06;3.45;;;0.90;;
70183;SDS011;57554;51.546;6.776;2022-09-01T11:11:46;3.45;;;1.00;;
70183;SDS011;57554;51.546;6.776;2022-09-01T11:14:24;3.75;;;0.80;;
70183;SDS011;57554;51.546;6.776;2022-09-01T11:19:43;4.43;;;0.90;;
70183;SDS011;57554;51.546;6.776;2022-09-01T11:22:42;4.28;;;1.20;;
70183;SDS011;57554;51.546;6.776;2022-09-01T11:28:05;5.15;;;1.02;;
70183;SDS011;57554;51.546;6.776;2022-09-01T11:35:56;6.60;;;1.17;;
70183;SDS011;57554;51.546;6.776;2022-09-01T11:38:27;4.03;;;1.20;;
70183;SDS011;57554;51.546;6.776;2022-09-01T11:40:56;7.13;;;1.42;;
70183;SDS011;57554;51.546;6.776;2022-09-01T11:43:22;3.75;;;1.20;;
70183;SDS011;57554;51.546;6.776;2022-09-01T11:45:55;4.00;;;1.10;;
70183;SDS011;57554;51.546;6.776;2022-09-01T11:48:32;5.55;;;1.17;;
70183;SDS011;57554;51.546;6.776;2022-09-01T11:50:58;4.72;;;1.20;;
70183;SDS011;57554;51.546;6.776;2022-09-01T11:53:27;5.03;;;1.20;;
70183;SDS011;57554;51.546;6.776;2022-09-01T11:55:54;5.82;;;1.10;;
70183;SDS011;57554;51.546;6.776;2022-09-01T11:58:33;7.32;;;1.38;;
70183;SDS011;57554;51.546;6.776;2022-09-01T12:03:40;8.52;;;1.48;;
70183;SDS011;57554;51.546;6.776;2022-09-01T12:06:07;4.35;;;1.40;;
70183;SDS011;57554;51.546;6.776;2022-09-01T12:08:35;4.90;;;1.20;;
70183;SDS011;57554;51.546;6.776;2022-09-01T12:13:59;3.67;;;1.38;;
70183;SDS011;57554;51.546;6.776;2022-09-01T12:16:27;7.88;;;1.52;;
70183;SDS011;57554;51.546;6.776;2022-09-01T12:18:56;4.43;;;1.60;;
70183;SDS011;57554;51.546;6.776;2022-09-01T12:23:52;5.53;;;1.40;;
70183;SDS011;57554;51.546;6.776;2022-09-01T12:26:25;4.15;;;1.25;;
70183;SDS011;57554;51.546;6.776;2022-09-01T12:28:53;5.05;;;1.50;;
70183;SDS011;57554;51.546;6.776;2022-09-01T12:31:21;5.57;;;1.50;;
70183;SDS011;57554;51.546;6.776;2022-09-01T12:33:48;8.38;;;1.65;;
70183;SDS011;57554;51.546;6.776;2022-09-01T12:36:20;3.60;;;1.30;;
70183;SDS011;57554;51.546;6.776;2022-09-01T12:38:47;6.45;;;1.50;;
70183;SDS011;57554;51.546;6.776;2022-09-01T12:44:28;4.38;;;1.58;;
70183;SDS011;57554;51.546;6.776;2022-09-01T12:46:59;4.15;;;1.30;;
70183;SDS011;57554;51.546;6.776;2022-09-01T12:49:44;5.88;;;1.50;;
70183;SDS011;57554;51.546;6.776;2022-09-01T12:54:36;4.32;;;1.23;;
70183;SDS011;57554;51.546;6.776;2022-09-01T12:57:02;7.43;;;1.60;;
70183;SDS011;57554;51.546;6.776;2022-09-01T12:59:29;7.63;;;1.38;;
70183;SDS011;57554;51.546;6.776;2022-09-01T13:01:55;6.50;;;1.30;;
70183;SDS011;57554;51.546;6.776;2022-09-01T13:06:56;7.20;;;1.50;;
70183;SDS011;57554;51.546;6.776;2022-09-01T13:09:25;8.90;;;1.40;;
70183;SDS011;57554;51.546;6.776;2022-09-01T13:11:51;6.50;;;1.50;;
70183;SDS011;57554;51.546;6.776;2022-09-01T13:14:17;9.20;;;2.13;;
70183;SDS011;57554;51.546;6.776;2022-09-01T13:16:43;9.15;;;1.70;;
70183;SDS011;57554;51.546;6.776;2022-09-01T13:19:09;5.18;;;1.42;;
70183;SDS011;57554;51.546;6.776;2022-09-01T13:21:34;5.90;;;1.40;;
70183;SDS011;57554;51.546;6.776;2022-09-01T13:24:01;5.68;;;1.35;;
70183;SDS011;57554;51.546;6.776;2022-09-01T13:26:29;3.30;;;1.33;;
70183;SDS011;57554;51.546;6.776;2022-09-01T13:28:55;4.38;;;1.60;;
70183;SDS011;57554;51.546;6.776;2022-09-01T13:31:24;7.88;;;1.50;;
70183;SDS011;57554;51.546;6.776;2022-09-01T13:33:49;8.95;;;1.52;;
70183;SDS011;57554;51.546;6.776;2022-09-01T13:36:15;3.95;;;1.60;;
70183;SDS011;57554;51.546;6.776;2022-09-01T13:38:41;5.20;;;1.27;;
70183;SDS011;57554;51.546;6.776;2022-09-01T13:41:06;9.55;;;1.60;;
70183;SDS011;57554;51.546;6.776;2022-09-01T13:43:34;6.30;;;1.45;;
70183;SDS011;57554;51.546;6.776;2022-09-01T13:46:00;5.70;;;1.75;;
70183;SDS011;57554;51.546;6.776;2022-09-01T13:48:26;7.10;;;1.25;;
70183;SDS011;57554;51.546;6.776;2022-09-01T13:50:53;3.63;;;1.33;;
70183;SDS011;57554;51.546;6.776;2022-09-01T13:53:19;5.32;;;1.65;;
70183;SDS011;57554;51.546;6.776;2022-09-01T13:55:46;5.40;;;1.50;;
70183;SDS011;57554;51.546;6.776;2022-09-01T13:58:13;5.53;;;1.60;;
70183;SDS011;57554;51.546;6.776;2022-09-01T14:00:41;5.93;;;1.90;;
70183;SDS011;57554;51.546;6.776;2022-09-01T14:03:11;4.68;;;1.33;;
70183;SDS011;57554;51.546;6.776;2022-09-01T14:05:43;6.28;;;1.50;;
70183;SDS011;57554;51.546;6.776;2022-09-01T14:08:10;4.35;;;1.48;;
70183;SDS011;57554;51.546;6.776;2022-09-01T14:10:38;6.57;;;1.40;;
70183;SDS011;57554;51.546;6.776;2022-09-01T14:13:06;5.10;;;1.40;;
70183;SDS011;57554;51.546;6.776;2022-09-01T14:15:33;5.43;;;1.60;;
70183;SDS011;57554;51.546;6.776;2022-09-01T14:18:00;5.40;;;1.60;;
70183;SDS011;57554;51.546;6.776;2022-09-01T14:20:27;6.78;;;1.40;;
70183;SDS011;57554;51.546;6.776;2022-09-01T14:22:59;6.72;;;1.67;;
70183;SDS011;57554;51.546;6.776;2022-09-01T14:25:26;4.80;;;1.30;;
70183;SDS011;57554;51.546;6.776;2022-09-01T14:27:52;6.18;;;1.35;;
70183;SDS011;57554;51.546;6.776;2022-09-01T14:30:19;4.63;;;1.40;;
70183;SDS011;57554;51.546;6.776;2022-09-01T14:32:47;4.25;;;1.38;;
70183;SDS011;57554;51.546;6.776;2022-09-01T14:35:13;5.18;;;1.60;;
70183;SDS011;57554;51.546;6.776;2022-09-01T14:37:40;6.32;;;1.40;;
70183;SDS011;57554;51.546;6.776;2022-09-01T14:40:06;6.70;;;1.65;;
70183;SDS011;57554;51.546;6.776;2022-09-01T14:42:34;4.57;;;1.40;;
70183;SDS011;57554;51.546;6.776;2022-09-01T14:45:01;6.07;;;1.60;;
70183;SDS011;57554;51.546;6.776;2022-09-01T14:47:28;4.75;;;1.30;;
70183;SDS011;57554;51.546;6.776;2022-09-01T14:49:54;5.47;;;1.55;;
70183;SDS011;57554;51.546;6.776;2022-09-01T14:52:20;5.38;;;1.42;;
70183;SDS011;57554;51.546;6.776;2022-09-01T14:54:46;5.20;;;1.67;;
70183;SDS011;57554;51.546;6.776;2022-09-01T14:57:12;3.85;;;1.30;;
70183;SDS011;57554;51.546;6.776;2022-09-01T14:59:38;8.20;;;1.38;;
70183;SDS011;57554;51.546;6.776;2022-09-01T15:02:05;4.22;;;1.50;;
70183;SDS011;57554;51.546;6.776;2022-09-01T15:04:32;4.80;;;1.50;;
70183;SDS011;57554;51.546;6.776;2022-09-01T15:06:58;6.40;;;1.70;;
70183;SDS011;57554;51.546;6.776;2022-09-01T15:09:23;5.00;;;1.30;;
70183;SDS011;57554;51.546;6.776;2022-09-01T15:11:49;4.75;;;1.40;;
70183;SDS011;57554;51.546;6.776;2022-09-01T15:14:15;4.20;;;1.10;;
70183;SDS011;57554;51.546;6.776;2022-09-01T15:16:41;4.97;;;1.40;;
70183;SDS011;57554;51.546;6.776;2022-09-01T15:19:08;4.13;;;1.30;;
70183;SDS011;57554;51.546;6.776;2022-09-01T15:21:35;3.92;;;1.30;;
70183;SDS011;57554;51.546;6.776;2022-09-01T15:24:02;5.03;;;1.30;;
70183;SDS011;57554;51.546;6.776;2022-09-01T15:26:29;4.65;;;1.40;;
70183;SDS011;57554;51.546;6.776;2022-09-01T15:28:55;3.80;;;1.20;;
70183;SDS011;57554;51.546;6.776;2022-09-01T15:31:22;6.95;;;1.20;;
70183;SDS011;57554;51.546;6.776;2022-09-01T15:33:53;5.90;;;1.10;;
70183;SDS011;57554;51.546;6.776;2022-09-01T15:36:21;6.97;;;1.50;;
70183;SDS011;57554;51.546;6.776;2022-09-01T15:38:48;6.00;;;1.25;;
70183;SDS011;57554;51.546;6.776;2022-09-01T15:41:18;4.35;;;1.20;;
70183;SDS011;57554;51.546;6.776;2022-09-01T15:43:46;4.78;;;1.20;;
70183;SDS011;57554;51.546;6.776;2022-09-01T15:46:12;13.07;;;1.60;;
70183;SDS011;57554;51.546;6.776;2022-09-01T15:48:38;8.40;;;1.40;;
70183;SDS011;57554;51.546;6.776;2022-09-01T15:53:51;4.90;;;1.25;;
70183;SDS011;57554;51.546;6.776;2022-09-01T15:56:18;3.65;;;1.23;;
70183;SDS011;57554;51.546;6.776;2022-09-01T15:58:48;4.35;;;1.20;;
70183;SDS011;57554;51.546;6.776;2022-09-01T16:01:15;3.58;;;1.23;;
70183;SDS011;57554;51.546;6.776;2022-09-01T16:03:42;6.20;;;1.23;;
70183;SDS011;57554;51.546;6.776;2022-09-01T16:06:08;10.55;;;1.30;;
70183;SDS011;57554;51.546;6.776;2022-09-01T16:08:35;6.72;;;1.50;;
70183;SDS011;57554;51.546;6.776;2022-09-01T16:11:04;5.22;;;1.25;;
70183;SDS011;57554;51.546;6.776;2022-09-01T16:13:36;4.80;;;1.33;;
70183;SDS011;57554;51.546;6.776;2022-09-01T16:18:42;5.65;;;1.20;;
70183;SDS011;57554;51.546;6.776;2022-09-01T16:21:17;5.00;;;1.10;;
70183;SDS011;57554;51.546;6.776;2022-09-01T16:24:01;3.90;;;1.20;;